Wetterdaten: aktuell Montag, 24.09.2018 17:15
Datum Zeit Temperatur Luftfeuchte Luftdruck Regen Windgeschw. Windrichtung Windrichtung Taupunkt
24.09.2018 17:15 8,1 C 44 % 1024 hPa 0,0 l/m 0,6 km/h N-NO67.5 30 -3,4 C
24.09.2018 16:15 8,1 C 47 % 1024 hPa 0,0 l/m 0,1 km/h O45 95 -2,5 C
24.09.2018 15:14 8,6 C 49 % 1024 hPa 0,4 l/m 1,2 km/h O-SO22.5 120 -1,5 C
24.09.2018 14:14 7,8 C 51 % 1023 hPa 0,4 l/m 2,8 km/h NO45 50 -1,7 C
24.09.2018 13:14 9,6 C 30 % 1023 hPa 0,0 l/m 0,6 km/h NO45 35 -7,1 C
24.09.2018 12:15 9,5 C 38 % 1023 hPa 0,0 l/m 2,8 km/h N-NW67.5 330 -4,1 C
24.09.2018 11:14 7,7 C 45 % 1023 hPa 0,0 l/m 3,7 km/h O-NO67.5 60 -3,5 C
24.09.2018 10:14 6,4 C 52 % 1022 hPa 0,0 l/m 0,3 km/h O45 100 -2,7 C
24.09.2018 09:15 5,5 C 58 % 1021 hPa 0,0 l/m 0,1 km/h NO67.5 45 -2,1 C
24.09.2018 08:15 4,9 C 62 % 1020 hPa 0,0 l/m 0,3 km/h O22.5 100 -1,8 C
24.09.2018 07:14 4,4 C 64 % 1019 hPa 0,0 l/m 0,1 km/h N67.5 10 -1,8 C
24.09.2018 06:14 4,8 C 64 % 1018 hPa 0,0 l/m 0,1 km/h SO 140 -1,4 C
24.09.2018 05:15 5,5 C 64 % 1016 hPa 0,0 l/m 0,4 km/h N-NO45 20 -0,8 C
24.09.2018 04:15 6,3 C 65 % 1016 hPa 0,0 l/m 1,7 km/h SO67.5 125 0,2 C
24.09.2018 03:14 7,0 C 66 % 1015 hPa 0,0 l/m 2,5 km/h O-SO67.5 115 1,1 C
24.09.2018 02:14 8,1 C 69 % 1013 hPa 4,3 l/m 1,0 km/h NO67.5 45 2,8 C
24.09.2018 01:15 11,6 C 67 % 1010 hPa 0,7 l/m 1,6 km/h O-SO45 115 5,7 C
24.09.2018 00:15 12,3 C 60 % 1008 hPa 0,4 l/m 21,0 km/h SO45 145 4,8 C
23.09.2018 23:15 13,6 C 61 % 1007 hPa 0,0 l/m 0,1 km/h S-SO45 160 6,2 C
23.09.2018 22:15 15,5 C 60 % 1007 hPa 1,8 l/m 2,1 km/h S-SO45 155 7,8 C
23.09.2018 21:14 17,7 C 56 % 1005 hPa 0,0 l/m 31,2 km/h S45 170 8,8 C
23.09.2018 20:15 15,8 C 63 % 1004 hPa 0,0 l/m 0,0 km/h S-SW 200 8,8 C
23.09.2018 19:15 16,5 C 60 % 1005 hPa 0,0 l/m 0,3 km/h S-SO22.5 160 8,7 C
23.09.2018 18:14 17,4 C 57 % 1006 hPa 0,0 l/m 0,3 km/h S-SO45 160 8,8 C
23.09.2018 18:04 17,6 C 56 % 1006 hPa 0,0 l/m 0,3 km/h SO67.5 145 8,7 C
_ Min-Zeit 06:44 13:14 20:05 - 18:24 - - 13:24
Minimum _ 4,3 C 30 % 1004 hPa - 0,0 km/h - - -7,4 C
_ Max-Zeit 21:14 02:19 15:04 01:30 21:14 - - 21:39
Maximum _ 17,7 C 70 % 1024 hPa 1,1 l/m 31,2 km/h
S
- - 9,9 C
Durchschnitt _ 9,7 C 56 % 1016 hPa #7,9 l/m 2,6 km/h SO - 1,2 C